Hopedale, IL (61747)

4:44 AM CST on February 01, 2015 (GMT -0600)
APRSWXNET Delavan IL US | Change Station
CLOSE
Current Station
Personal Weather Station
Location: Delavan, IL
Elevation: 580 ft
Nearby Weather Stations
Active Advisory: Winter Storm Warning

Elev 580 ft 40.36 °N, 89.54 °W | Updated 41 minutes ago

Snow
Snow
35 °F
Feels Like 35 °F
N
2
Wind Variable Wind from South
Gusts 5.0 mph

Today
High -- | Low -- °F
--% Chance of Precip.
Yesterday
High -- | Low -- °F
Precip. -- in
7:07 AM 5:15 PM
Waxing Gibbous, 94% visible
Pressure 29.93 in
Visibility 1.8 miles
Clouds Overcast 800 ft
Windchill 35 °F
Dew Point 32 °F
Humidity 89%
Rainfall 0.32 in
Snow Depth Not available.
UV 0 out of 12
Pollen .10 out of 12
Air Quality Not available.
Flu Activity Not available.
METAR KAAA 011035Z AUTO 13008KT 1 3/4SM -SN OVC008 01/01 A2993 RMK AO2 P0001 T00100005

More Conditions Fewer Conditions

Pressure 29.93 in
Visibility 1.8 miles
Clouds Overcast 800 ft
Windchill 35 °F
Dew Point 32 °F
Humidity 89%
Rainfall 0.32 in
Snow Depth Not available.
UV 0 out of 12
Pollen .10 out of 12
Air Quality Not available.
Flu Activity Not available.
METAR KAAA 011035Z AUTO 13008KT 1 3/4SM -SN OVC008 01/01 A2993 RMK AO2 P0001 T00100005

More Conditions Fewer Conditions

10-Day Weather Forecast

Almanac

Astronomy

Feb. 01, 2015 Rise Set
Actual Time
Civil Twilight
Nautical Twilight
Astronomical Twilight
Moon
Length of Visible Light
Length of Day
Tomorrow will be .
, % of the Moon is Illuminated

Today's Extremes

State Highs State Lows

Community

WunderPhotos

Upload Photos

1,792,343 photos uploaded!

WunderBlogs® & News

Nearby

Air Quality

  Air Quality AQ Index Pollutant
Not available.

Snow Depth

Station Depth Elevation

Earthquake Activity

City Distance Mag. Time & Date
Minimum magnitude displayed is 2.5.

Coastal Water Temperatures

Place Temperature

Nearby Weather Stations